sensor_id;sensor_type;location;lat;lon;timestamp;P1;durP1;ratioP1;P2;durP2;ratioP2
59474;SDS011;45288;51.136;16.928;2024-03-07T00:01:08;50.28;;;27.77;;
59474;SDS011;45288;51.136;16.928;2024-03-07T00:03:34;55.72;;;29.15;;
59474;SDS011;45288;51.136;16.928;2024-03-07T00:06:00;54.13;;;29.25;;
59474;SDS011;45288;51.136;16.928;2024-03-07T00:08:26;53.17;;;29.23;;
59474;SDS011;45288;51.136;16.928;2024-03-07T00:10:52;54.92;;;29.25;;
59474;SDS011;45288;51.136;16.928;2024-03-07T00:13:18;54.57;;;28.93;;
59474;SDS011;45288;51.136;16.928;2024-03-07T00:15:43;55.40;;;28.50;;
59474;SDS011;45288;51.136;16.928;2024-03-07T00:18:09;51.30;;;28.43;;
59474;SDS011;45288;51.136;16.928;2024-03-07T00:20:36;57.40;;;28.52;;
59474;SDS011;45288;51.136;16.928;2024-03-07T00:23:01;57.83;;;28.92;;
59474;SDS011;45288;51.136;16.928;2024-03-07T00:25:28;55.85;;;28.73;;
59474;SDS011;45288;51.136;16.928;2024-03-07T00:27:56;58.15;;;30.90;;
59474;SDS011;45288;51.136;16.928;2024-03-07T00:30:28;51.73;;;29.07;;
59474;SDS011;45288;51.136;16.928;2024-03-07T00:32:57;57.70;;;29.70;;
59474;SDS011;45288;51.136;16.928;2024-03-07T00:35:24;56.97;;;29.48;;
59474;SDS011;45288;51.136;16.928;2024-03-07T00:37:50;56.37;;;29.27;;
59474;SDS011;45288;51.136;16.928;2024-03-07T00:40:16;55.97;;;28.80;;
59474;SDS011;45288;51.136;16.928;2024-03-07T00:42:42;56.22;;;29.50;;
59474;SDS011;45288;51.136;16.928;2024-03-07T00:45:08;54.92;;;29.67;;
59474;SDS011;45288;51.136;16.928;2024-03-07T00:47:34;51.83;;;28.17;;
59474;SDS011;45288;51.136;16.928;2024-03-07T00:50:00;53.10;;;28.20;;
59474;SDS011;45288;51.136;16.928;2024-03-07T00:52:26;54.97;;;28.55;;
59474;SDS011;45288;51.136;16.928;2024-03-07T00:54:52;53.40;;;29.15;;
59474;SDS011;45288;51.136;16.928;2024-03-07T00:57:17;52.73;;;27.83;;
59474;SDS011;45288;51.136;16.928;2024-03-07T00:59:43;53.90;;;28.70;;
59474;SDS011;45288;51.136;16.928;2024-03-07T01:02:09;50.40;;;27.45;;
59474;SDS011;45288;51.136;16.928;2024-03-07T01:04:35;50.75;;;28.25;;
59474;SDS011;45288;51.136;16.928;2024-03-07T01:07:01;50.43;;;26.97;;
59474;SDS011;45288;51.136;16.928;2024-03-07T01:09:27;54.20;;;27.83;;
59474;SDS011;45288;51.136;16.928;2024-03-07T01:11:55;51.28;;;26.35;;
59474;SDS011;45288;51.136;16.928;2024-03-07T01:14:21;52.55;;;27.50;;
59474;SDS011;45288;51.136;16.928;2024-03-07T01:16:48;51.08;;;25.83;;
59474;SDS011;45288;51.136;16.928;2024-03-07T01:19:14;48.60;;;25.75;;
59474;SDS011;45288;51.136;16.928;2024-03-07T01:21:40;48.97;;;25.92;;
59474;SDS011;45288;51.136;16.928;2024-03-07T01:24:06;49.05;;;26.00;;
59474;SDS011;45288;51.136;16.928;2024-03-07T01:26:31;50.20;;;25.63;;
59474;SDS011;45288;51.136;16.928;2024-03-07T01:28:59;48.63;;;25.33;;
59474;SDS011;45288;51.136;16.928;2024-03-07T01:31:25;47.83;;;25.23;;
59474;SDS011;45288;51.136;16.928;2024-03-07T01:33:51;52.10;;;25.90;;
59474;SDS011;45288;51.136;16.928;2024-03-07T01:36:18;53.67;;;27.00;;
59474;SDS011;45288;51.136;16.928;2024-03-07T01:38:44;49.85;;;25.90;;
59474;SDS011;45288;51.136;16.928;2024-03-07T01:41:10;45.60;;;25.13;;
59474;SDS011;45288;51.136;16.928;2024-03-07T01:43:36;44.20;;;23.50;;
59474;SDS011;45288;51.136;16.928;2024-03-07T01:46:02;45.53;;;23.65;;
59474;SDS011;45288;51.136;16.928;2024-03-07T01:48:28;45.63;;;24.80;;
59474;SDS011;45288;51.136;16.928;2024-03-07T01:50:57;47.53;;;24.73;;
59474;SDS011;45288;51.136;16.928;2024-03-07T01:53:24;45.88;;;23.48;;
59474;SDS011;45288;51.136;16.928;2024-03-07T01:55:54;50.47;;;24.73;;
59474;SDS011;45288;51.136;16.928;2024-03-07T01:58:20;50.30;;;25.23;;
59474;SDS011;45288;51.136;16.928;2024-03-07T02:00:46;50.67;;;25.83;;
59474;SDS011;45288;51.136;16.928;2024-03-07T02:03:16;51.78;;;25.67;;
59474;SDS011;45288;51.136;16.928;2024-03-07T02:05:42;46.33;;;23.95;;
59474;SDS011;45288;51.136;16.928;2024-03-07T02:08:08;48.38;;;24.73;;
59474;SDS011;45288;51.136;16.928;2024-03-07T02:10:34;49.60;;;24.83;;
59474;SDS011;45288;51.136;16.928;2024-03-07T02:13:00;50.35;;;25.50;;
59474;SDS011;45288;51.136;16.928;2024-03-07T02:15:28;48.40;;;25.08;;
59474;SDS011;45288;51.136;16.928;2024-03-07T02:17:54;48.45;;;24.45;;
59474;SDS011;45288;51.136;16.928;2024-03-07T02:20:21;49.83;;;25.33;;
59474;SDS011;45288;51.136;16.928;2024-03-07T02:22:47;49.17;;;25.27;;
59474;SDS011;45288;51.136;16.928;2024-03-07T02:25:13;48.03;;;24.75;;
59474;SDS011;45288;51.136;16.928;2024-03-07T02:27:39;48.28;;;25.15;;
59474;SDS011;45288;51.136;16.928;2024-03-07T02:30:08;48.40;;;25.48;;
59474;SDS011;45288;51.136;16.928;2024-03-07T02:32:34;51.70;;;24.93;;
59474;SDS011;45288;51.136;16.928;2024-03-07T02:35:03;48.53;;;25.47;;
59474;SDS011;45288;51.136;16.928;2024-03-07T02:37:29;49.33;;;24.07;;
59474;SDS011;45288;51.136;16.928;2024-03-07T02:39:56;46.70;;;24.60;;
59474;SDS011;45288;51.136;16.928;2024-03-07T02:42:21;46.53;;;24.48;;
59474;SDS011;45288;51.136;16.928;2024-03-07T02:44:47;51.03;;;25.67;;
59474;SDS011;45288;51.136;16.928;2024-03-07T02:47:13;45.53;;;24.25;;
59474;SDS011;45288;51.136;16.928;2024-03-07T02:49:39;50.22;;;25.63;;
59474;SDS011;45288;51.136;16.928;2024-03-07T02:52:05;47.53;;;24.83;;
59474;SDS011;45288;51.136;16.928;2024-03-07T02:54:33;51.87;;;25.73;;
59474;SDS011;45288;51.136;16.928;2024-03-07T02:57:00;47.85;;;24.58;;
59474;SDS011;45288;51.136;16.928;2024-03-07T02:59:26;48.33;;;24.35;;
59474;SDS011;45288;51.136;16.928;2024-03-07T03:01:52;43.42;;;23.02;;
59474;SDS011;45288;51.136;16.928;2024-03-07T03:04:18;43.13;;;23.38;;
59474;SDS011;45288;51.136;16.928;2024-03-07T03:06:45;47.17;;;24.48;;
59474;SDS011;45288;51.136;16.928;2024-03-07T03:09:12;46.95;;;23.35;;
59474;SDS011;45288;51.136;16.928;2024-03-07T03:11:45;43.65;;;22.77;;
59474;SDS011;45288;51.136;16.928;2024-03-07T03:14:11;43.80;;;22.53;;
59474;SDS011;45288;51.136;16.928;2024-03-07T03:16:42;44.60;;;23.80;;
59474;SDS011;45288;51.136;16.928;2024-03-07T03:19:10;44.10;;;22.50;;
59474;SDS011;45288;51.136;16.928;2024-03-07T03:21:36;47.22;;;23.55;;
59474;SDS011;45288;51.136;16.928;2024-03-07T03:24:03;44.83;;;23.48;;
59474;SDS011;45288;51.136;16.928;2024-03-07T03:26:29;46.33;;;22.85;;
59474;SDS011;45288;51.136;16.928;2024-03-07T03:28:57;46.83;;;23.55;;
59474;SDS011;45288;51.136;16.928;2024-03-07T03:31:23;41.95;;;23.25;;
59474;SDS011;45288;51.136;16.928;2024-03-07T03:33:49;49.60;;;24.73;;
59474;SDS011;45288;51.136;16.928;2024-03-07T03:36:16;43.08;;;22.65;;
59474;SDS011;45288;51.136;16.928;2024-03-07T03:38:42;44.70;;;23.50;;
59474;SDS011;45288;51.136;16.928;2024-03-07T03:41:08;46.07;;;22.97;;
59474;SDS011;45288;51.136;16.928;2024-03-07T03:43:33;45.88;;;22.58;;
59474;SDS011;45288;51.136;16.928;2024-03-07T03:45:59;45.92;;;23.38;;
59474;SDS011;45288;51.136;16.928;2024-03-07T03:48:27;46.95;;;22.77;;
59474;SDS011;45288;51.136;16.928;2024-03-07T03:50:53;46.00;;;22.88;;
59474;SDS011;45288;51.136;16.928;2024-03-07T03:53:19;46.40;;;23.52;;
59474;SDS011;45288;51.136;16.928;2024-03-07T03:55:45;43.63;;;23.03;;
59474;SDS011;45288;51.136;16.928;2024-03-07T03:58:11;46.15;;;23.38;;
59474;SDS011;45288;51.136;16.928;2024-03-07T04:00:37;46.67;;;23.33;;
59474;SDS011;45288;51.136;16.928;2024-03-07T04:03:04;45.45;;;22.67;;
59474;SDS011;45288;51.136;16.928;2024-03-07T04:05:30;42.78;;;21.85;;
59474;SDS011;45288;51.136;16.928;2024-03-07T04:07:57;46.83;;;23.50;;
59474;SDS011;45288;51.136;16.928;2024-03-07T04:10:24;47.00;;;23.23;;
59474;SDS011;45288;51.136;16.928;2024-03-07T04:12:49;43.17;;;22.67;;
59474;SDS011;45288;51.136;16.928;2024-03-07T04:15:15;48.60;;;23.75;;
59474;SDS011;45288;51.136;16.928;2024-03-07T04:17:42;45.03;;;23.52;;
59474;SDS011;45288;51.136;16.928;2024-03-07T04:20:08;46.97;;;24.00;;
59474;SDS011;45288;51.136;16.928;2024-03-07T04:22:39;45.75;;;23.73;;
59474;SDS011;45288;51.136;16.928;2024-03-07T04:25:05;44.08;;;22.83;;
59474;SDS011;45288;51.136;16.928;2024-03-07T04:27:33;45.42;;;23.65;;
59474;SDS011;45288;51.136;16.928;2024-03-07T04:30:04;46.47;;;22.08;;
59474;SDS011;45288;51.136;16.928;2024-03-07T04:32:32;43.73;;;22.40;;
59474;SDS011;45288;51.136;16.928;2024-03-07T04:34:59;49.43;;;24.93;;
59474;SDS011;45288;51.136;16.928;2024-03-07T04:37:26;47.55;;;24.48;;
59474;SDS011;45288;51.136;16.928;2024-03-07T04:39:55;44.38;;;22.67;;
59474;SDS011;45288;51.136;16.928;2024-03-07T04:42:21;45.83;;;24.40;;
59474;SDS011;45288;51.136;16.928;2024-03-07T04:44:47;45.13;;;22.63;;
59474;SDS011;45288;51.136;16.928;2024-03-07T04:47:12;47.10;;;23.53;;
59474;SDS011;45288;51.136;16.928;2024-03-07T04:49:38;51.22;;;24.17;;
59474;SDS011;45288;51.136;16.928;2024-03-07T04:52:05;47.97;;;24.90;;
59474;SDS011;45288;51.136;16.928;2024-03-07T04:54:31;45.13;;;23.27;;
59474;SDS011;45288;51.136;16.928;2024-03-07T04:56:57;49.45;;;24.52;;
59474;SDS011;45288;51.136;16.928;2024-03-07T04:59:23;47.00;;;23.05;;
59474;SDS011;45288;51.136;16.928;2024-03-07T05:01:49;47.40;;;23.93;;
59474;SDS011;45288;51.136;16.928;2024-03-07T05:04:16;44.13;;;22.60;;
59474;SDS011;45288;51.136;16.928;2024-03-07T05:06:42;43.45;;;23.08;;
59474;SDS011;45288;51.136;16.928;2024-03-07T05:09:09;45.80;;;23.10;;
59474;SDS011;45288;51.136;16.928;2024-03-07T05:11:48;50.90;;;24.08;;
59474;SDS011;45288;51.136;16.928;2024-03-07T05:14:17;49.73;;;23.37;;
59474;SDS011;45288;51.136;16.928;2024-03-07T05:16:42;52.87;;;26.13;;
59474;SDS011;45288;51.136;16.928;2024-03-07T05:19:08;46.38;;;23.50;;
59474;SDS011;45288;51.136;16.928;2024-03-07T05:21:34;44.88;;;22.73;;
59474;SDS011;45288;51.136;16.928;2024-03-07T05:24:05;49.63;;;24.90;;
59474;SDS011;45288;51.136;16.928;2024-03-07T05:26:36;44.15;;;23.58;;
59474;SDS011;45288;51.136;16.928;2024-03-07T05:29:10;43.35;;;23.17;;
59474;SDS011;45288;51.136;16.928;2024-03-07T05:31:39;48.35;;;23.85;;
59474;SDS011;45288;51.136;16.928;2024-03-07T05:34:15;46.25;;;23.98;;
59474;SDS011;45288;51.136;16.928;2024-03-07T05:36:41;54.80;;;25.47;;
59474;SDS011;45288;51.136;16.928;2024-03-07T05:39:12;46.65;;;23.23;;
59474;SDS011;45288;51.136;16.928;2024-03-07T05:41:39;44.03;;;23.70;;
59474;SDS011;45288;51.136;16.928;2024-03-07T05:44:06;47.20;;;24.83;;
59474;SDS011;45288;51.136;16.928;2024-03-07T05:46:36;44.45;;;23.05;;
59474;SDS011;45288;51.136;16.928;2024-03-07T05:49:06;48.75;;;23.67;;
59474;SDS011;45288;51.136;16.928;2024-03-07T05:51:39;48.55;;;24.73;;
59474;SDS011;45288;51.136;16.928;2024-03-07T05:54:07;48.75;;;22.85;;
59474;SDS011;45288;51.136;16.928;2024-03-07T05:56:34;45.93;;;24.73;;
59474;SDS011;45288;51.136;16.928;2024-03-07T05:59:04;46.78;;;23.35;;
59474;SDS011;45288;51.136;16.928;2024-03-07T06:01:33;41.93;;;22.37;;
59474;SDS011;45288;51.136;16.928;2024-03-07T06:04:00;44.85;;;23.17;;
59474;SDS011;45288;51.136;16.928;2024-03-07T06:06:26;43.35;;;22.60;;
59474;SDS011;45288;51.136;16.928;2024-03-07T06:08:52;43.13;;;23.13;;
59474;SDS011;45288;51.136;16.928;2024-03-07T06:11:18;43.53;;;20.48;;
59474;SDS011;45288;51.136;16.928;2024-03-07T06:13:49;43.38;;;22.65;;
59474;SDS011;45288;51.136;16.928;2024-03-07T06:16:15;44.00;;;22.33;;
59474;SDS011;45288;51.136;16.928;2024-03-07T06:18:41;44.20;;;22.43;;
59474;SDS011;45288;51.136;16.928;2024-03-07T06:21:07;45.83;;;22.20;;
59474;SDS011;45288;51.136;16.928;2024-03-07T06:23:33;42.42;;;21.42;;
59474;SDS011;45288;51.136;16.928;2024-03-07T06:26:00;42.15;;;21.50;;
59474;SDS011;45288;51.136;16.928;2024-03-07T06:28:26;40.93;;;21.40;;
59474;SDS011;45288;51.136;16.928;2024-03-07T06:30:56;45.30;;;21.90;;
59474;SDS011;45288;51.136;16.928;2024-03-07T06:33:22;43.88;;;22.05;;
59474;SDS011;45288;51.136;16.928;2024-03-07T06:35:48;42.55;;;20.17;;
59474;SDS011;45288;51.136;16.928;2024-03-07T06:38:14;39.35;;;20.58;;
59474;SDS011;45288;51.136;16.928;2024-03-07T06:40:40;43.60;;;21.83;;
59474;SDS011;45288;51.136;16.928;2024-03-07T06:43:08;41.97;;;21.73;;
59474;SDS011;45288;51.136;16.928;2024-03-07T06:45:37;38.75;;;20.00;;
59474;SDS011;45288;51.136;16.928;2024-03-07T06:48:07;45.13;;;22.50;;
59474;SDS011;45288;51.136;16.928;2024-03-07T06:50:36;38.07;;;21.50;;
59474;SDS011;45288;51.136;16.928;2024-03-07T06:53:05;42.13;;;22.50;;
59474;SDS011;45288;51.136;16.928;2024-03-07T06:55:32;44.10;;;21.33;;
59474;SDS011;45288;51.136;16.928;2024-03-07T06:58:01;44.92;;;21.35;;
59474;SDS011;45288;51.136;16.928;2024-03-07T07:00:30;42.63;;;20.30;;
59474;SDS011;45288;51.136;16.928;2024-03-07T07:03:01;40.10;;;20.17;;
59474;SDS011;45288;51.136;16.928;2024-03-07T07:05:30;41.25;;;21.40;;
59474;SDS011;45288;51.136;16.928;2024-03-07T07:07:56;47.92;;;22.88;;
59474;SDS011;45288;51.136;16.928;2024-03-07T07:10:22;39.25;;;20.70;;
59474;SDS011;45288;51.136;16.928;2024-03-07T07:12:49;39.95;;;20.75;;
59474;SDS011;45288;51.136;16.928;2024-03-07T07:15:16;39.33;;;20.60;;
59474;SDS011;45288;51.136;16.928;2024-03-07T07:17:44;41.65;;;21.30;;
59474;SDS011;45288;51.136;16.928;2024-03-07T07:20:14;38.05;;;20.20;;
59474;SDS011;45288;51.136;16.928;2024-03-07T07:22:47;44.10;;;20.70;;
59474;SDS011;45288;51.136;16.928;2024-03-07T07:25:13;39.38;;;19.48;;
59474;SDS011;45288;51.136;16.928;2024-03-07T07:27:43;45.65;;;21.38;;
59474;SDS011;45288;51.136;16.928;2024-03-07T07:30:13;34.58;;;19.30;;
59474;SDS011;45288;51.136;16.928;2024-03-07T07:32:41;50.50;;;22.95;;
59474;SDS011;45288;51.136;16.928;2024-03-07T07:35:08;40.85;;;20.67;;
59474;SDS011;45288;51.136;16.928;2024-03-07T07:37:40;38.13;;;20.23;;
59474;SDS011;45288;51.136;16.928;2024-03-07T07:40:10;43.83;;;21.20;;
59474;SDS011;45288;51.136;16.928;2024-03-07T07:42:47;42.95;;;21.05;;
59474;SDS011;45288;51.136;16.928;2024-03-07T07:45:14;39.97;;;20.10;;
59474;SDS011;45288;51.136;16.928;2024-03-07T07:47:51;41.55;;;21.00;;
59474;SDS011;45288;51.136;16.928;2024-03-07T07:50:19;41.72;;;21.20;;
59474;SDS011;45288;51.136;16.928;2024-03-07T07:55:19;41.78;;;20.80;;
59474;SDS011;45288;51.136;16.928;2024-03-07T07:57:56;42.50;;;21.20;;
59474;SDS011;45288;51.136;16.928;2024-03-07T08:00:24;35.38;;;18.80;;
59474;SDS011;45288;51.136;16.928;2024-03-07T08:05:24;48.28;;;21.08;;
59474;SDS011;45288;51.136;16.928;2024-03-07T08:07:57;40.42;;;20.45;;
59474;SDS011;45288;51.136;16.928;2024-03-07T08:10:24;39.17;;;20.13;;
59474;SDS011;45288;51.136;16.928;2024-03-07T08:12:51;40.13;;;20.17;;
59474;SDS011;45288;51.136;16.928;2024-03-07T08:15:18;34.58;;;19.15;;
59474;SDS011;45288;51.136;16.928;2024-03-07T08:17:45;40.28;;;20.02;;
59474;SDS011;45288;51.136;16.928;2024-03-07T08:20:15;39.35;;;19.92;;
59474;SDS011;45288;51.136;16.928;2024-03-07T08:22:44;36.15;;;19.55;;
59474;SDS011;45288;51.136;16.928;2024-03-07T08:27:37;39.47;;;20.10;;
59474;SDS011;45288;51.136;16.928;2024-03-07T08:30:04;40.65;;;20.40;;
59474;SDS011;45288;51.136;16.928;2024-03-07T08:32:33;37.25;;;19.58;;
59474;SDS011;45288;51.136;16.928;2024-03-07T08:35:03;39.65;;;20.35;;
59474;SDS011;45288;51.136;16.928;2024-03-07T08:37:33;35.55;;;19.60;;
59474;SDS011;45288;51.136;16.928;2024-03-07T08:40:00;41.08;;;20.90;;
59474;SDS011;45288;51.136;16.928;2024-03-07T08:42:30;40.97;;;20.73;;
59474;SDS011;45288;51.136;16.928;2024-03-07T08:44:59;37.33;;;19.57;;
59474;SDS011;45288;51.136;16.928;2024-03-07T08:47:27;36.92;;;19.05;;
59474;SDS011;45288;51.136;16.928;2024-03-07T08:49:54;40.53;;;20.35;;
59474;SDS011;45288;51.136;16.928;2024-03-07T08:52:24;44.28;;;20.15;;
59474;SDS011;45288;51.136;16.928;2024-03-07T08:54:50;39.05;;;20.60;;
59474;SDS011;45288;51.136;16.928;2024-03-07T08:57:15;38.35;;;20.20;;
59474;SDS011;45288;51.136;16.928;2024-03-07T08:59:45;39.50;;;20.23;;
59474;SDS011;45288;51.136;16.928;2024-03-07T09:02:11;36.55;;;19.10;;
59474;SDS011;45288;51.136;16.928;2024-03-07T09:04:37;38.67;;;20.50;;
59474;SDS011;45288;51.136;16.928;2024-03-07T09:07:07;39.05;;;19.77;;
59474;SDS011;45288;51.136;16.928;2024-03-07T09:09:33;44.50;;;21.70;;
59474;SDS011;45288;51.136;16.928;2024-03-07T09:12:02;41.03;;;20.90;;
59474;SDS011;45288;51.136;16.928;2024-03-07T09:14:28;38.05;;;20.58;;
59474;SDS011;45288;51.136;16.928;2024-03-07T09:16:54;44.05;;;20.63;;
59474;SDS011;45288;51.136;16.928;2024-03-07T09:19:20;37.33;;;19.47;;
59474;SDS011;45288;51.136;16.928;2024-03-07T09:21:52;39.73;;;20.20;;
59474;SDS011;45288;51.136;16.928;2024-03-07T09:24:19;37.10;;;20.42;;
59474;SDS011;45288;51.136;16.928;2024-03-07T09:26:51;37.83;;;20.33;;
59474;SDS011;45288;51.136;16.928;2024-03-07T09:29:18;38.97;;;21.10;;
59474;SDS011;45288;51.136;16.928;2024-03-07T09:31:45;40.47;;;20.77;;
59474;SDS011;45288;51.136;16.928;2024-03-07T09:34:12;40.08;;;21.10;;
59474;SDS011;45288;51.136;16.928;2024-03-07T09:36:38;38.17;;;20.08;;
59474;SDS011;45288;51.136;16.928;2024-03-07T09:39:07;41.17;;;21.70;;
59474;SDS011;45288;51.136;16.928;2024-03-07T09:41:34;38.92;;;20.27;;
59474;SDS011;45288;51.136;16.928;2024-03-07T09:44:00;38.72;;;20.70;;
59474;SDS011;45288;51.136;16.928;2024-03-07T09:46:26;37.97;;;21.17;;
59474;SDS011;45288;51.136;16.928;2024-03-07T09:48:52;39.88;;;21.55;;
59474;SDS011;45288;51.136;16.928;2024-03-07T09:51:20;41.33;;;21.60;;
59474;SDS011;45288;51.136;16.928;2024-03-07T09:53:46;44.40;;;22.73;;
59474;SDS011;45288;51.136;16.928;2024-03-07T09:56:14;45.40;;;22.73;;
59474;SDS011;45288;51.136;16.928;2024-03-07T09:58:46;42.38;;;21.83;;
59474;SDS011;45288;51.136;16.928;2024-03-07T10:01:15;42.13;;;22.63;;
59474;SDS011;45288;51.136;16.928;2024-03-07T10:03:43;43.65;;;22.20;;
59474;SDS011;45288;51.136;16.928;2024-03-07T10:06:10;38.60;;;21.70;;
59474;SDS011;45288;51.136;16.928;2024-03-07T10:08:36;36.60;;;20.85;;
59474;SDS011;45288;51.136;16.928;2024-03-07T10:11:02;42.35;;;21.60;;
59474;SDS011;45288;51.136;16.928;2024-03-07T10:13:28;38.75;;;20.73;;
59474;SDS011;45288;51.136;16.928;2024-03-07T10:15:56;40.50;;;20.60;;
59474;SDS011;45288;51.136;16.928;2024-03-07T10:18:25;39.53;;;20.17;;
59474;SDS011;45288;51.136;16.928;2024-03-07T10:20:55;38.13;;;20.50;;
59474;SDS011;45288;51.136;16.928;2024-03-07T10:23:22;42.10;;;20.85;;
59474;SDS011;45288;51.136;16.928;2024-03-07T10:25:52;34.38;;;20.10;;
59474;SDS011;45288;51.136;16.928;2024-03-07T10:28:20;34.03;;;18.38;;
59474;SDS011;45288;51.136;16.928;2024-03-07T10:30:46;37.80;;;19.40;;
59474;SDS011;45288;51.136;16.928;2024-03-07T10:33:13;43.35;;;21.10;;
59474;SDS011;45288;51.136;16.928;2024-03-07T10:35:39;36.10;;;19.90;;
59474;SDS011;45288;51.136;16.928;2024-03-07T10:38:04;38.37;;;20.00;;
59474;SDS011;45288;51.136;16.928;2024-03-07T10:40:38;39.57;;;20.83;;
59474;SDS011;45288;51.136;16.928;2024-03-07T10:43:11;39.08;;;21.20;;
59474;SDS011;45288;51.136;16.928;2024-03-07T10:45:47;37.08;;;20.95;;
59474;SDS011;45288;51.136;16.928;2024-03-07T10:48:16;40.15;;;22.30;;
59474;SDS011;45288;51.136;16.928;2024-03-07T10:53:45;43.90;;;21.77;;
59474;SDS011;45288;51.136;16.928;2024-03-07T10:59:34;38.37;;;21.13;;
59474;SDS011;45288;51.136;16.928;2024-03-07T11:04:52;39.50;;;21.67;;
59474;SDS011;45288;51.136;16.928;2024-03-07T11:07:20;38.63;;;20.92;;
59474;SDS011;45288;51.136;16.928;2024-03-07T11:09:54;45.38;;;22.35;;
59474;SDS011;45288;51.136;16.928;2024-03-07T11:12:21;42.53;;;22.13;;
59474;SDS011;45288;51.136;16.928;2024-03-07T11:14:50;36.17;;;20.23;;
59474;SDS011;45288;51.136;16.928;2024-03-07T11:17:18;35.55;;;21.02;;
59474;SDS011;45288;51.136;16.928;2024-03-07T11:19:46;42.22;;;21.70;;
59474;SDS011;45288;51.136;16.928;2024-03-07T11:22:29;37.80;;;20.67;;
59474;SDS011;45288;51.136;16.928;2024-03-07T11:25:04;38.05;;;21.30;;
59474;SDS011;45288;51.136;16.928;2024-03-07T11:27:38;38.40;;;20.90;;
59474;SDS011;45288;51.136;16.928;2024-03-07T11:30:05;38.03;;;21.15;;
59474;SDS011;45288;51.136;16.928;2024-03-07T11:32:39;36.50;;;20.70;;
59474;SDS011;45288;51.136;16.928;2024-03-07T11:35:12;36.58;;;19.90;;
59474;SDS011;45288;51.136;16.928;2024-03-07T11:37:44;35.30;;;19.50;;
59474;SDS011;45288;51.136;16.928;2024-03-07T11:40:58;34.28;;;18.55;;
59474;SDS011;45288;51.136;16.928;2024-03-07T11:43:00;36.08;;;18.60;;
59474;SDS011;45288;51.136;16.928;2024-03-07T11:45:30;32.47;;;18.20;;
59474;SDS011;45288;51.136;16.928;2024-03-07T11:48:04;32.83;;;18.35;;
59474;SDS011;45288;51.136;16.928;2024-03-07T11:50:38;35.45;;;18.10;;
59474;SDS011;45288;51.136;16.928;2024-03-07T11:53:05;35.75;;;18.98;;
59474;SDS011;45288;51.136;16.928;2024-03-07T11:55:33;33.00;;;18.65;;
59474;SDS011;45288;51.136;16.928;2024-03-07T11:58:15;33.63;;;17.25;;
59474;SDS011;45288;51.136;16.928;2024-03-07T12:00:42;36.92;;;19.10;;
59474;SDS011;45288;51.136;16.928;2024-03-07T12:03:12;35.60;;;19.50;;
59474;SDS011;45288;51.136;16.928;2024-03-07T12:05:39;35.17;;;18.47;;
59474;SDS011;45288;51.136;16.928;2024-03-07T12:08:06;34.88;;;18.23;;
59474;SDS011;45288;51.136;16.928;2024-03-07T12:10:35;34.13;;;17.67;;
59474;SDS011;45288;51.136;16.928;2024-03-07T12:13:03;35.15;;;17.92;;
59474;SDS011;45288;51.136;16.928;2024-03-07T12:15:29;35.58;;;17.08;;
59474;SDS011;45288;51.136;16.928;2024-03-07T12:17:55;32.65;;;17.02;;
59474;SDS011;45288;51.136;16.928;2024-03-07T12:20:23;30.58;;;15.77;;
59474;SDS011;45288;51.136;16.928;2024-03-07T12:22:59;33.92;;;17.27;;
59474;SDS011;45288;51.136;16.928;2024-03-07T12:25:29;33.20;;;16.73;;
59474;SDS011;45288;51.136;16.928;2024-03-07T12:27:59;37.33;;;17.40;;
59474;SDS011;45288;51.136;16.928;2024-03-07T12:33:11;32.47;;;16.47;;
59474;SDS011;45288;51.136;16.928;2024-03-07T12:35:39;31.30;;;16.20;;
59474;SDS011;45288;51.136;16.928;2024-03-07T12:38:09;30.75;;;15.70;;
59474;SDS011;45288;51.136;16.928;2024-03-07T12:40:41;29.95;;;15.98;;
59474;SDS011;45288;51.136;16.928;2024-03-07T12:43:17;30.65;;;14.75;;
59474;SDS011;45288;51.136;16.928;2024-03-07T12:45:53;35.88;;;15.85;;
59474;SDS011;45288;51.136;16.928;2024-03-07T12:48:23;29.95;;;15.32;;
59474;SDS011;45288;51.136;16.928;2024-03-07T12:50:49;31.05;;;15.98;;
59474;SDS011;45288;51.136;16.928;2024-03-07T12:53:19;33.60;;;15.88;;
59474;SDS011;45288;51.136;16.928;2024-03-07T12:55:47;30.48;;;15.63;;
59474;SDS011;45288;51.136;16.928;2024-03-07T12:58:13;32.17;;;15.23;;
59474;SDS011;45288;51.136;16.928;2024-03-07T13:00:40;27.75;;;15.00;;
59474;SDS011;45288;51.136;16.928;2024-03-07T13:03:07;31.65;;;15.80;;
59474;SDS011;45288;51.136;16.928;2024-03-07T13:05:39;33.87;;;16.33;;
59474;SDS011;45288;51.136;16.928;2024-03-07T13:08:06;32.47;;;16.10;;
59474;SDS011;45288;51.136;16.928;2024-03-07T13:10:41;30.20;;;16.23;;
59474;SDS011;45288;51.136;16.928;2024-03-07T13:13:08;32.17;;;16.33;;
59474;SDS011;45288;51.136;16.928;2024-03-07T13:15:37;33.05;;;16.25;;
59474;SDS011;45288;51.136;16.928;2024-03-07T13:18:04;29.65;;;16.08;;
59474;SDS011;45288;51.136;16.928;2024-03-07T13:20:30;29.97;;;15.97;;
59474;SDS011;45288;51.136;16.928;2024-03-07T13:22:57;34.38;;;16.15;;
59474;SDS011;45288;51.136;16.928;2024-03-07T13:25:26;29.17;;;16.48;;
59474;SDS011;45288;51.136;16.928;2024-03-07T13:30:27;31.25;;;16.55;;
59474;SDS011;45288;51.136;16.928;2024-03-07T13:32:56;33.13;;;16.65;;
59474;SDS011;45288;51.136;16.928;2024-03-07T13:35:23;30.70;;;15.97;;
59474;SDS011;45288;51.136;16.928;2024-03-07T13:37:51;30.25;;;16.73;;
59474;SDS011;45288;51.136;16.928;2024-03-07T13:40:25;30.45;;;16.90;;
59474;SDS011;45288;51.136;16.928;2024-03-07T13:42:53;31.55;;;18.33;;
59474;SDS011;45288;51.136;16.928;2024-03-07T13:45:23;36.05;;;19.33;;
59474;SDS011;45288;51.136;16.928;2024-03-07T13:47:52;33.13;;;19.35;;
59474;SDS011;45288;51.136;16.928;2024-03-07T13:50:20;32.93;;;18.77;;
59474;SDS011;45288;51.136;16.928;2024-03-07T13:52:53;34.45;;;19.65;;
59474;SDS011;45288;51.136;16.928;2024-03-07T14:07:06;33.45;;;18.50;;
59474;SDS011;45288;51.136;16.928;2024-03-07T14:10:06;34.53;;;17.95;;
59474;SDS011;45288;51.136;16.928;2024-03-07T14:21:31;32.17;;;17.33;;
59474;SDS011;45288;51.136;16.928;2024-03-07T14:24:31;31.83;;;17.73;;
59474;SDS011;45288;51.136;16.928;2024-03-07T14:32:23;31.27;;;17.10;;
59474;SDS011;45288;51.136;16.928;2024-03-07T14:34:56;30.40;;;16.42;;
59474;SDS011;45288;51.136;16.928;2024-03-07T14:37:49;30.95;;;16.75;;
59474;SDS011;45288;51.136;16.928;2024-03-07T14:40:19;31.75;;;17.23;;
59474;SDS011;45288;51.136;16.928;2024-03-07T14:42:47;30.63;;;16.55;;
59474;SDS011;45288;51.136;16.928;2024-03-07T14:45:17;31.88;;;16.92;;
59474;SDS011;45288;51.136;16.928;2024-03-07T14:47:46;31.38;;;17.02;;
59474;SDS011;45288;51.136;16.928;2024-03-07T14:50:14;33.10;;;17.25;;
59474;SDS011;45288;51.136;16.928;2024-03-07T14:52:42;32.50;;;17.65;;
59474;SDS011;45288;51.136;16.928;2024-03-07T14:55:08;32.90;;;16.92;;
59474;SDS011;45288;51.136;16.928;2024-03-07T14:57:36;30.67;;;16.95;;
59474;SDS011;45288;51.136;16.928;2024-03-07T15:00:04;30.85;;;16.92;;
59474;SDS011;45288;51.136;16.928;2024-03-07T15:02:44;34.63;;;18.05;;